sensor_id;sensor_type;location;lat;lon;timestamp;P1;durP1;ratioP1;P2;durP2;ratioP2
35418;SDS011;21525;41.240;16.500;2023-06-04T00:00:48;9.13;;;5.35;;
35418;SDS011;21525;41.240;16.500;2023-06-04T00:03:13;8.10;;;5.28;;
35418;SDS011;21525;41.240;16.500;2023-06-04T00:05:39;8.60;;;5.50;;
35418;SDS011;21525;41.240;16.500;2023-06-04T00:08:05;9.85;;;5.65;;
35418;SDS011;21525;41.240;16.500;2023-06-04T00:10:30;8.90;;;4.93;;
35418;SDS011;21525;41.240;16.500;2023-06-04T00:12:58;9.65;;;4.78;;
35418;SDS011;21525;41.240;16.500;2023-06-04T00:15:24;9.60;;;5.13;;
35418;SDS011;21525;41.240;16.500;2023-06-04T00:17:49;8.05;;;5.20;;
35418;SDS011;21525;41.240;16.500;2023-06-04T00:20:16;9.23;;;5.25;;
35418;SDS011;21525;41.240;16.500;2023-06-04T00:22:42;8.15;;;5.10;;
35418;SDS011;21525;41.240;16.500;2023-06-04T00:25:08;8.73;;;5.03;;
35418;SDS011;21525;41.240;16.500;2023-06-04T00:27:35;7.47;;;4.90;;
35418;SDS011;21525;41.240;16.500;2023-06-04T00:30:01;7.75;;;5.30;;
35418;SDS011;21525;41.240;16.500;2023-06-04T00:32:27;7.63;;;4.82;;
35418;SDS011;21525;41.240;16.500;2023-06-04T00:34:56;11.23;;;5.30;;
35418;SDS011;21525;41.240;16.500;2023-06-04T00:37:25;8.48;;;5.03;;
35418;SDS011;21525;41.240;16.500;2023-06-04T00:39:52;9.52;;;4.88;;
35418;SDS011;21525;41.240;16.500;2023-06-04T00:42:18;9.82;;;5.78;;
35418;SDS011;21525;41.240;16.500;2023-06-04T00:44:44;7.13;;;5.18;;
35418;SDS011;21525;41.240;16.500;2023-06-04T00:47:17;6.13;;;4.60;;
35418;SDS011;21525;41.240;16.500;2023-06-04T00:49:45;12.15;;;5.50;;
35418;SDS011;21525;41.240;16.500;2023-06-04T00:52:14;11.25;;;5.57;;
35418;SDS011;21525;41.240;16.500;2023-06-04T00:54:41;7.85;;;5.05;;
35418;SDS011;21525;41.240;16.500;2023-06-04T00:57:07;8.00;;;4.95;;
35418;SDS011;21525;41.240;16.500;2023-06-04T00:59:35;9.10;;;5.10;;
35418;SDS011;21525;41.240;16.500;2023-06-04T01:07:46;15.65;;;5.30;;
35418;SDS011;21525;41.240;16.500;2023-06-04T01:10:13;7.68;;;5.25;;
35418;SDS011;21525;41.240;16.500;2023-06-04T01:12:40;10.65;;;5.28;;
35418;SDS011;21525;41.240;16.500;2023-06-04T01:15:07;9.07;;;5.55;;
35418;SDS011;21525;41.240;16.500;2023-06-04T01:17:39;10.05;;;5.35;;
35418;SDS011;21525;41.240;16.500;2023-06-04T01:22:52;10.38;;;5.57;;
35418;SDS011;21525;41.240;16.500;2023-06-04T01:25:40;9.27;;;5.32;;
35418;SDS011;21525;41.240;16.500;2023-06-04T01:28:10;11.48;;;5.35;;
35418;SDS011;21525;41.240;16.500;2023-06-04T01:30:38;7.40;;;5.15;;
35418;SDS011;21525;41.240;16.500;2023-06-04T01:33:15;9.90;;;5.88;;
35418;SDS011;21525;41.240;16.500;2023-06-04T01:35:43;13.20;;;5.55;;
35418;SDS011;21525;41.240;16.500;2023-06-04T01:38:09;7.63;;;5.05;;
35418;SDS011;21525;41.240;16.500;2023-06-04T01:40:35;9.65;;;5.10;;
35418;SDS011;21525;41.240;16.500;2023-06-04T01:43:02;12.82;;;5.63;;
35418;SDS011;21525;41.240;16.500;2023-06-04T01:45:28;7.85;;;5.60;;
35418;SDS011;21525;41.240;16.500;2023-06-04T01:47:55;7.50;;;4.90;;
35418;SDS011;21525;41.240;16.500;2023-06-04T01:50:23;8.07;;;5.85;;
35418;SDS011;21525;41.240;16.500;2023-06-04T01:52:48;9.77;;;5.05;;
35418;SDS011;21525;41.240;16.500;2023-06-04T01:55:15;8.35;;;5.32;;
35418;SDS011;21525;41.240;16.500;2023-06-04T01:57:42;8.25;;;5.55;;
35418;SDS011;21525;41.240;16.500;2023-06-04T02:00:09;7.88;;;5.05;;
35418;SDS011;21525;41.240;16.500;2023-06-04T02:02:40;11.40;;;5.97;;
35418;SDS011;21525;41.240;16.500;2023-06-04T02:05:07;10.65;;;5.97;;
35418;SDS011;21525;41.240;16.500;2023-06-04T02:07:34;8.40;;;5.30;;
35418;SDS011;21525;41.240;16.500;2023-06-04T02:10:07;11.07;;;5.60;;
35418;SDS011;21525;41.240;16.500;2023-06-04T02:12:41;9.05;;;6.03;;
35418;SDS011;21525;41.240;16.500;2023-06-04T02:15:18;9.07;;;5.50;;
35418;SDS011;21525;41.240;16.500;2023-06-04T02:17:44;10.30;;;5.55;;
35418;SDS011;21525;41.240;16.500;2023-06-04T02:20:11;12.10;;;5.60;;
35418;SDS011;21525;41.240;16.500;2023-06-04T02:22:37;10.18;;;5.35;;
35418;SDS011;21525;41.240;16.500;2023-06-04T02:25:04;9.45;;;5.15;;
35418;SDS011;21525;41.240;16.500;2023-06-04T02:27:30;9.15;;;5.55;;
35418;SDS011;21525;41.240;16.500;2023-06-04T02:29:56;10.18;;;5.68;;
35418;SDS011;21525;41.240;16.500;2023-06-04T02:32:22;10.77;;;6.03;;
35418;SDS011;21525;41.240;16.500;2023-06-04T02:34:48;10.98;;;6.43;;
35418;SDS011;21525;41.240;16.500;2023-06-04T02:37:14;7.85;;;5.95;;
35418;SDS011;21525;41.240;16.500;2023-06-04T02:39:40;10.27;;;6.32;;
35418;SDS011;21525;41.240;16.500;2023-06-04T02:42:06;9.60;;;5.85;;
35418;SDS011;21525;41.240;16.500;2023-06-04T02:44:32;9.82;;;5.88;;
35418;SDS011;21525;41.240;16.500;2023-06-04T02:46:58;13.07;;;6.63;;
35418;SDS011;21525;41.240;16.500;2023-06-04T02:49:24;10.23;;;6.13;;
35418;SDS011;21525;41.240;16.500;2023-06-04T02:51:50;10.65;;;6.13;;
35418;SDS011;21525;41.240;16.500;2023-06-04T02:54:16;8.55;;;6.20;;
35418;SDS011;21525;41.240;16.500;2023-06-04T02:56:42;10.63;;;6.53;;
35418;SDS011;21525;41.240;16.500;2023-06-04T02:59:10;13.10;;;6.28;;
35418;SDS011;21525;41.240;16.500;2023-06-04T03:01:36;10.07;;;5.90;;
35418;SDS011;21525;41.240;16.500;2023-06-04T03:04:02;9.85;;;6.25;;
35418;SDS011;21525;41.240;16.500;2023-06-04T03:06:35;8.95;;;5.93;;
35418;SDS011;21525;41.240;16.500;2023-06-04T03:09:03;12.85;;;8.90;;
35418;SDS011;21525;41.240;16.500;2023-06-04T03:11:29;12.02;;;6.95;;
35418;SDS011;21525;41.240;16.500;2023-06-04T03:13:56;9.38;;;5.97;;
35418;SDS011;21525;41.240;16.500;2023-06-04T03:16:22;12.23;;;6.70;;
35418;SDS011;21525;41.240;16.500;2023-06-04T03:18:48;14.07;;;5.93;;
35418;SDS011;21525;41.240;16.500;2023-06-04T03:21:13;12.63;;;5.95;;
35418;SDS011;21525;41.240;16.500;2023-06-04T03:23:41;11.15;;;5.60;;
35418;SDS011;21525;41.240;16.500;2023-06-04T03:26:07;10.90;;;5.85;;
35418;SDS011;21525;41.240;16.500;2023-06-04T03:28:33;11.73;;;6.03;;
35418;SDS011;21525;41.240;16.500;2023-06-04T03:31:01;9.00;;;5.93;;
35418;SDS011;21525;41.240;16.500;2023-06-04T03:33:27;11.57;;;6.28;;
35418;SDS011;21525;41.240;16.500;2023-06-04T03:35:53;11.32;;;6.43;;
35418;SDS011;21525;41.240;16.500;2023-06-04T03:38:22;11.02;;;6.70;;
35418;SDS011;21525;41.240;16.500;2023-06-04T03:40:48;13.88;;;8.60;;
35418;SDS011;21525;41.240;16.500;2023-06-04T03:43:14;9.63;;;6.35;;
35418;SDS011;21525;41.240;16.500;2023-06-04T03:45:41;10.98;;;7.15;;
35418;SDS011;21525;41.240;16.500;2023-06-04T03:48:08;13.68;;;6.43;;
35418;SDS011;21525;41.240;16.500;2023-06-04T03:50:35;12.95;;;7.13;;
35418;SDS011;21525;41.240;16.500;2023-06-04T03:53:01;12.93;;;6.15;;
35418;SDS011;21525;41.240;16.500;2023-06-04T03:55:30;10.68;;;6.18;;
35418;SDS011;21525;41.240;16.500;2023-06-04T03:57:58;13.55;;;6.55;;
35418;SDS011;21525;41.240;16.500;2023-06-04T04:00:24;12.48;;;6.38;;
35418;SDS011;21525;41.240;16.500;2023-06-04T04:02:53;8.70;;;6.30;;
35418;SDS011;21525;41.240;16.500;2023-06-04T04:05:22;11.25;;;6.30;;
35418;SDS011;21525;41.240;16.500;2023-06-04T04:07:49;10.10;;;6.65;;
35418;SDS011;21525;41.240;16.500;2023-06-04T04:10:19;12.32;;;6.30;;
35418;SDS011;21525;41.240;16.500;2023-06-04T04:12:45;12.85;;;8.30;;
35418;SDS011;21525;41.240;16.500;2023-06-04T04:15:12;11.13;;;6.95;;
35418;SDS011;21525;41.240;16.500;2023-06-04T04:17:37;11.98;;;7.00;;
35418;SDS011;21525;41.240;16.500;2023-06-04T04:20:03;12.23;;;6.43;;
35418;SDS011;21525;41.240;16.500;2023-06-04T04:22:32;12.88;;;6.30;;
35418;SDS011;21525;41.240;16.500;2023-06-04T04:24:58;13.95;;;7.32;;
35418;SDS011;21525;41.240;16.500;2023-06-04T04:27:24;12.63;;;6.28;;
35418;SDS011;21525;41.240;16.500;2023-06-04T04:29:51;10.23;;;6.00;;
35418;SDS011;21525;41.240;16.500;2023-06-04T04:32:25;8.52;;;6.28;;
35418;SDS011;21525;41.240;16.500;2023-06-04T04:34:53;9.23;;;6.53;;
35418;SDS011;21525;41.240;16.500;2023-06-04T04:37:25;10.50;;;6.88;;
35418;SDS011;21525;41.240;16.500;2023-06-04T04:39:54;17.98;;;7.07;;
35418;SDS011;21525;41.240;16.500;2023-06-04T04:42:22;11.48;;;6.93;;
35418;SDS011;21525;41.240;16.500;2023-06-04T04:44:49;13.45;;;7.10;;
35418;SDS011;21525;41.240;16.500;2023-06-04T04:49:43;13.60;;;7.32;;
35418;SDS011;21525;41.240;16.500;2023-06-04T04:52:09;14.23;;;7.05;;
35418;SDS011;21525;41.240;16.500;2023-06-04T04:54:37;9.73;;;6.80;;
35418;SDS011;21525;41.240;16.500;2023-06-04T04:57:03;12.63;;;7.15;;
35418;SDS011;21525;41.240;16.500;2023-06-04T04:59:29;12.38;;;7.40;;
35418;SDS011;21525;41.240;16.500;2023-06-04T05:01:57;11.93;;;7.50;;
35418;SDS011;21525;41.240;16.500;2023-06-04T05:04:23;10.20;;;7.10;;
35418;SDS011;21525;41.240;16.500;2023-06-04T05:06:49;13.15;;;7.10;;
35418;SDS011;21525;41.240;16.500;2023-06-04T05:09:15;14.90;;;7.50;;
35418;SDS011;21525;41.240;16.500;2023-06-04T05:11:41;11.02;;;6.60;;
35418;SDS011;21525;41.240;16.500;2023-06-04T05:14:07;10.68;;;6.68;;
35418;SDS011;21525;41.240;16.500;2023-06-04T05:16:33;10.05;;;6.68;;
35418;SDS011;21525;41.240;16.500;2023-06-04T05:19:04;12.57;;;8.15;;
35418;SDS011;21525;41.240;16.500;2023-06-04T05:21:33;13.82;;;8.13;;
35418;SDS011;21525;41.240;16.500;2023-06-04T05:24:03;9.60;;;6.03;;
35418;SDS011;21525;41.240;16.500;2023-06-04T05:26:32;11.30;;;6.85;;
35418;SDS011;21525;41.240;16.500;2023-06-04T05:29:03;10.10;;;6.65;;
35418;SDS011;21525;41.240;16.500;2023-06-04T05:31:33;10.13;;;6.38;;
35418;SDS011;21525;41.240;16.500;2023-06-04T05:34:01;15.18;;;7.38;;
35418;SDS011;21525;41.240;16.500;2023-06-04T05:36:30;10.65;;;7.28;;
35418;SDS011;21525;41.240;16.500;2023-06-04T05:38:59;10.20;;;7.00;;
35418;SDS011;21525;41.240;16.500;2023-06-04T05:41:32;11.65;;;7.40;;
35418;SDS011;21525;41.240;16.500;2023-06-04T05:44:00;9.95;;;6.03;;
35418;SDS011;21525;41.240;16.500;2023-06-04T05:46:26;10.95;;;6.00;;
35418;SDS011;21525;41.240;16.500;2023-06-04T05:48:53;11.43;;;5.93;;
35418;SDS011;21525;41.240;16.500;2023-06-04T05:51:20;10.60;;;5.65;;
35418;SDS011;21525;41.240;16.500;2023-06-04T05:53:47;8.18;;;4.93;;
35418;SDS011;21525;41.240;16.500;2023-06-04T05:56:13;10.77;;;5.63;;
35418;SDS011;21525;41.240;16.500;2023-06-04T05:58:39;8.85;;;5.18;;
35418;SDS011;21525;41.240;16.500;2023-06-04T06:01:07;10.43;;;5.78;;
35418;SDS011;21525;41.240;16.500;2023-06-04T06:03:32;8.45;;;5.07;;
35418;SDS011;21525;41.240;16.500;2023-06-04T06:05:58;7.65;;;5.32;;
35418;SDS011;21525;41.240;16.500;2023-06-04T06:08:26;7.50;;;4.97;;
35418;SDS011;21525;41.240;16.500;2023-06-04T06:10:52;6.18;;;5.05;;
35418;SDS011;21525;41.240;16.500;2023-06-04T06:13:18;8.90;;;5.30;;
35418;SDS011;21525;41.240;16.500;2023-06-04T06:15:45;10.27;;;5.45;;
35418;SDS011;21525;41.240;16.500;2023-06-04T06:18:13;7.20;;;5.30;;
35418;SDS011;21525;41.240;16.500;2023-06-04T06:20:39;8.82;;;5.45;;
35418;SDS011;21525;41.240;16.500;2023-06-04T06:23:06;9.35;;;5.55;;
35418;SDS011;21525;41.240;16.500;2023-06-04T06:25:33;8.65;;;4.53;;
35418;SDS011;21525;41.240;16.500;2023-06-04T06:28:04;7.78;;;5.32;;
35418;SDS011;21525;41.240;16.500;2023-06-04T06:30:31;8.35;;;5.07;;
35418;SDS011;21525;41.240;16.500;2023-06-04T06:32:57;8.25;;;5.43;;
35418;SDS011;21525;41.240;16.500;2023-06-04T06:35:22;8.75;;;4.97;;
35418;SDS011;21525;41.240;16.500;2023-06-04T06:37:48;15.35;;;5.68;;
35418;SDS011;21525;41.240;16.500;2023-06-04T06:40:14;8.35;;;5.20;;
35418;SDS011;21525;41.240;16.500;2023-06-04T06:42:40;9.15;;;5.22;;
35418;SDS011;21525;41.240;16.500;2023-06-04T06:45:05;8.40;;;5.32;;
35418;SDS011;21525;41.240;16.500;2023-06-04T06:47:31;10.63;;;5.85;;
35418;SDS011;21525;41.240;16.500;2023-06-04T06:49:57;14.23;;;5.78;;
35418;SDS011;21525;41.240;16.500;2023-06-04T06:52:23;7.97;;;5.55;;
35418;SDS011;21525;41.240;16.500;2023-06-04T06:54:49;10.50;;;5.20;;
35418;SDS011;21525;41.240;16.500;2023-06-04T06:57:15;8.15;;;5.20;;
35418;SDS011;21525;41.240;16.500;2023-06-04T06:59:42;8.85;;;5.63;;
35418;SDS011;21525;41.240;16.500;2023-06-04T07:02:08;8.80;;;5.72;;
35418;SDS011;21525;41.240;16.500;2023-06-04T07:04:33;9.13;;;5.95;;
35418;SDS011;21525;41.240;16.500;2023-06-04T07:06:59;10.98;;;6.25;;
35418;SDS011;21525;41.240;16.500;2023-06-04T07:09:25;9.25;;;5.72;;
35418;SDS011;21525;41.240;16.500;2023-06-04T07:11:51;7.60;;;5.85;;
35418;SDS011;21525;41.240;16.500;2023-06-04T07:14:17;12.10;;;6.18;;
35418;SDS011;21525;41.240;16.500;2023-06-04T07:16:42;10.60;;;6.38;;
35418;SDS011;21525;41.240;16.500;2023-06-04T07:19:08;10.55;;;6.43;;
35418;SDS011;21525;41.240;16.500;2023-06-04T07:21:34;9.48;;;6.03;;
35418;SDS011;21525;41.240;16.500;2023-06-04T07:23:59;12.05;;;6.53;;
35418;SDS011;21525;41.240;16.500;2023-06-04T07:26:25;15.20;;;6.32;;
35418;SDS011;21525;41.240;16.500;2023-06-04T07:28:51;10.85;;;5.95;;
35418;SDS011;21525;41.240;16.500;2023-06-04T07:31:17;8.57;;;6.07;;
35418;SDS011;21525;41.240;16.500;2023-06-04T07:33:43;11.75;;;6.10;;
35418;SDS011;21525;41.240;16.500;2023-06-04T07:36:10;8.82;;;6.10;;
35418;SDS011;21525;41.240;16.500;2023-06-04T07:38:37;13.55;;;6.78;;
35418;SDS011;21525;41.240;16.500;2023-06-04T07:41:03;12.07;;;6.28;;
35418;SDS011;21525;41.240;16.500;2023-06-04T07:43:29;8.95;;;6.10;;
35418;SDS011;21525;41.240;16.500;2023-06-04T07:45:54;9.63;;;6.10;;
35418;SDS011;21525;41.240;16.500;2023-06-04T07:48:20;9.88;;;6.22;;
35418;SDS011;21525;41.240;16.500;2023-06-04T07:50:46;8.25;;;5.97;;
35418;SDS011;21525;41.240;16.500;2023-06-04T07:53:12;8.68;;;6.40;;
35418;SDS011;21525;41.240;16.500;2023-06-04T07:55:37;10.15;;;7.03;;
35418;SDS011;21525;41.240;16.500;2023-06-04T07:58:03;10.18;;;6.55;;
35418;SDS011;21525;41.240;16.500;2023-06-04T08:00:30;11.85;;;6.85;;
35418;SDS011;21525;41.240;16.500;2023-06-04T08:02:56;10.45;;;6.82;;
35418;SDS011;21525;41.240;16.500;2023-06-04T08:05:22;13.38;;;7.60;;
35418;SDS011;21525;41.240;16.500;2023-06-04T08:07:48;9.43;;;6.95;;
35418;SDS011;21525;41.240;16.500;2023-06-04T08:10:14;13.75;;;7.22;;
35418;SDS011;21525;41.240;16.500;2023-06-04T08:12:40;17.02;;;7.65;;
35418;SDS011;21525;41.240;16.500;2023-06-04T08:15:05;11.93;;;7.57;;
35418;SDS011;21525;41.240;16.500;2023-06-04T08:17:50;13.07;;;7.47;;
35418;SDS011;21525;41.240;16.500;2023-06-04T08:20:18;10.50;;;7.13;;
35418;SDS011;21525;41.240;16.500;2023-06-04T08:22:57;13.02;;;7.40;;
35418;SDS011;21525;41.240;16.500;2023-06-04T08:28:06;10.40;;;7.68;;
35418;SDS011;21525;41.240;16.500;2023-06-04T08:30:52;11.07;;;7.72;;
35418;SDS011;21525;41.240;16.500;2023-06-04T08:33:34;11.65;;;7.28;;
35418;SDS011;21525;41.240;16.500;2023-06-04T08:36:01;11.13;;;7.63;;
35418;SDS011;21525;41.240;16.500;2023-06-04T08:38:27;9.95;;;7.88;;
35418;SDS011;21525;41.240;16.500;2023-06-04T08:40:53;9.63;;;7.07;;
35418;SDS011;21525;41.240;16.500;2023-06-04T08:43:27;9.70;;;7.45;;
35418;SDS011;21525;41.240;16.500;2023-06-04T08:45:58;8.77;;;7.45;;
35418;SDS011;21525;41.240;16.500;2023-06-04T08:48:24;12.32;;;8.15;;
35418;SDS011;21525;41.240;16.500;2023-06-04T08:50:52;11.23;;;8.10;;
35418;SDS011;21525;41.240;16.500;2023-06-04T08:53:20;12.70;;;7.90;;
35418;SDS011;21525;41.240;16.500;2023-06-04T08:55:46;11.63;;;7.80;;
35418;SDS011;21525;41.240;16.500;2023-06-04T08:58:15;13.57;;;8.10;;
35418;SDS011;21525;41.240;16.500;2023-06-04T09:00:41;10.07;;;7.88;;
35418;SDS011;21525;41.240;16.500;2023-06-04T09:03:07;11.05;;;7.97;;
35418;SDS011;21525;41.240;16.500;2023-06-04T09:05:33;9.90;;;7.10;;
35418;SDS011;21525;41.240;16.500;2023-06-04T09:08:01;14.02;;;8.32;;
35418;SDS011;21525;41.240;16.500;2023-06-04T09:10:31;11.70;;;8.75;;
35418;SDS011;21525;41.240;16.500;2023-06-04T09:13:00;14.15;;;8.18;;
35418;SDS011;21525;41.240;16.500;2023-06-04T09:15:28;12.02;;;8.65;;
35418;SDS011;21525;41.240;16.500;2023-06-04T09:17:54;11.68;;;8.50;;
35418;SDS011;21525;41.240;16.500;2023-06-04T09:20:20;14.25;;;9.02;;
35418;SDS011;21525;41.240;16.500;2023-06-04T09:22:47;11.35;;;8.75;;
35418;SDS011;21525;41.240;16.500;2023-06-04T09:25:23;10.27;;;8.32;;
35418;SDS011;21525;41.240;16.500;2023-06-04T09:27:56;11.85;;;8.10;;
35418;SDS011;21525;41.240;16.500;2023-06-04T09:30:30;10.88;;;7.65;;
35418;SDS011;21525;41.240;16.500;2023-06-04T09:33:05;15.43;;;8.38;;
35418;SDS011;21525;41.240;16.500;2023-06-04T09:35:34;11.40;;;8.13;;
35418;SDS011;21525;41.240;16.500;2023-06-04T09:38:00;13.40;;;8.68;;
35418;SDS011;21525;41.240;16.500;2023-06-04T09:40:34;11.20;;;7.95;;
35418;SDS011;21525;41.240;16.500;2023-06-04T09:43:02;11.38;;;7.85;;
35418;SDS011;21525;41.240;16.500;2023-06-04T09:47:57;11.50;;;7.78;;
35418;SDS011;21525;41.240;16.500;2023-06-04T09:50:31;12.00;;;8.18;;
35418;SDS011;21525;41.240;16.500;2023-06-04T09:52:58;14.23;;;8.88;;
35418;SDS011;21525;41.240;16.500;2023-06-04T09:55:25;11.27;;;8.23;;
35418;SDS011;21525;41.240;16.500;2023-06-04T09:57:51;9.77;;;7.65;;
35418;SDS011;21525;41.240;16.500;2023-06-04T10:00:18;11.90;;;7.50;;
35418;SDS011;21525;41.240;16.500;2023-06-04T10:02:46;10.95;;;7.63;;
35418;SDS011;21525;41.240;16.500;2023-06-04T10:05:13;9.13;;;6.65;;
35418;SDS011;21525;41.240;16.500;2023-06-04T10:07:43;7.93;;;5.97;;
35418;SDS011;21525;41.240;16.500;2023-06-04T10:10:16;8.20;;;6.55;;
35418;SDS011;21525;41.240;16.500;2023-06-04T10:12:47;8.18;;;6.00;;
35418;SDS011;21525;41.240;16.500;2023-06-04T10:15:17;8.63;;;6.43;;
35418;SDS011;21525;41.240;16.500;2023-06-04T10:17:44;9.00;;;6.63;;
35418;SDS011;21525;41.240;16.500;2023-06-04T10:20:13;11.27;;;6.75;;
35418;SDS011;21525;41.240;16.500;2023-06-04T10:22:39;9.35;;;6.43;;
35418;SDS011;21525;41.240;16.500;2023-06-04T10:25:06;9.57;;;6.38;;
35418;SDS011;21525;41.240;16.500;2023-06-04T10:27:34;8.75;;;6.15;;
35418;SDS011;21525;41.240;16.500;2023-06-04T10:30:01;8.68;;;6.55;;
35418;SDS011;21525;41.240;16.500;2023-06-04T10:32:29;8.00;;;6.13;;
35418;SDS011;21525;41.240;16.500;2023-06-04T10:34:55;8.60;;;6.35;;
35418;SDS011;21525;41.240;16.500;2023-06-04T10:37:23;8.70;;;6.32;;
35418;SDS011;21525;41.240;16.500;2023-06-04T10:39:53;10.87;;;6.90;;
35418;SDS011;21525;41.240;16.500;2023-06-04T10:42:21;9.20;;;6.32;;
35418;SDS011;21525;41.240;16.500;2023-06-04T10:44:48;9.43;;;6.85;;
35418;SDS011;21525;41.240;16.500;2023-06-04T10:47:19;8.85;;;6.60;;
35418;SDS011;21525;41.240;16.500;2023-06-04T10:49:51;11.25;;;6.47;;
35418;SDS011;21525;41.240;16.500;2023-06-04T10:52:19;9.20;;;6.50;;
35418;SDS011;21525;41.240;16.500;2023-06-04T10:54:45;9.60;;;6.80;;
35418;SDS011;21525;41.240;16.500;2023-06-04T10:57:14;9.80;;;6.72;;
35418;SDS011;21525;41.240;16.500;2023-06-04T10:59:53;11.45;;;7.18;;
35418;SDS011;21525;41.240;16.500;2023-06-04T11:02:22;10.43;;;7.20;;
35418;SDS011;21525;41.240;16.500;2023-06-04T11:05:01;10.23;;;7.45;;
35418;SDS011;21525;41.240;16.500;2023-06-04T11:07:41;8.93;;;6.20;;
35418;SDS011;21525;41.240;16.500;2023-06-04T11:10:09;8.73;;;6.82;;
35418;SDS011;21525;41.240;16.500;2023-06-04T11:12:42;8.65;;;6.18;;
35418;SDS011;21525;41.240;16.500;2023-06-04T11:15:08;8.63;;;6.93;;
35418;SDS011;21525;41.240;16.500;2023-06-04T11:17:34;8.20;;;6.55;;
35418;SDS011;21525;41.240;16.500;2023-06-04T11:20:00;10.30;;;6.47;;
35418;SDS011;21525;41.240;16.500;2023-06-04T11:22:26;11.30;;;6.90;;
35418;SDS011;21525;41.240;16.500;2023-06-04T11:24:56;8.63;;;6.15;;
35418;SDS011;21525;41.240;16.500;2023-06-04T11:27:24;8.48;;;6.30;;
35418;SDS011;21525;41.240;16.500;2023-06-04T11:29:53;8.80;;;5.65;;
35418;SDS011;21525;41.240;16.500;2023-06-04T11:32:25;9.73;;;6.15;;
35418;SDS011;21525;41.240;16.500;2023-06-04T11:34:51;8.57;;;5.95;;
35418;SDS011;21525;41.240;16.500;2023-06-04T11:37:28;10.32;;;6.82;;
35418;SDS011;21525;41.240;16.500;2023-06-04T11:39:57;9.15;;;6.53;;
35418;SDS011;21525;41.240;16.500;2023-06-04T11:42:23;9.60;;;6.65;;
35418;SDS011;21525;41.240;16.500;2023-06-04T11:44:54;9.98;;;6.88;;
35418;SDS011;21525;41.240;16.500;2023-06-04T11:47:21;8.88;;;6.40;;
35418;SDS011;21525;41.240;16.500;2023-06-04T11:49:47;9.75;;;6.13;;
35418;SDS011;21525;41.240;16.500;2023-06-04T11:52:14;9.68;;;6.28;;
35418;SDS011;21525;41.240;16.500;2023-06-04T11:54:41;9.80;;;5.85;;
35418;SDS011;21525;41.240;16.500;2023-06-04T11:57:06;8.82;;;5.68;;
35418;SDS011;21525;41.240;16.500;2023-06-04T11:59:32;9.48;;;5.65;;
35418;SDS011;21525;41.240;16.500;2023-06-04T12:02:00;9.40;;;6.80;;
35418;SDS011;21525;41.240;16.500;2023-06-04T12:04:29;6.95;;;5.63;;
35418;SDS011;21525;41.240;16.500;2023-06-04T12:06:56;10.20;;;6.20;;
35418;SDS011;21525;41.240;16.500;2023-06-04T12:09:28;9.50;;;6.68;;
35418;SDS011;21525;41.240;16.500;2023-06-04T12:12:00;11.80;;;6.35;;
35418;SDS011;21525;41.240;16.500;2023-06-04T12:14:28;9.43;;;7.13;;
35418;SDS011;21525;41.240;16.500;2023-06-04T12:16:58;9.98;;;6.22;;
35418;SDS011;21525;41.240;16.500;2023-06-04T12:19:30;7.30;;;5.50;;
35418;SDS011;21525;41.240;16.500;2023-06-04T12:22:06;11.45;;;5.63;;
35418;SDS011;21525;41.240;16.500;2023-06-04T12:24:33;7.82;;;5.68;;
35418;SDS011;21525;41.240;16.500;2023-06-04T12:27:06;8.25;;;6.30;;
35418;SDS011;21525;41.240;16.500;2023-06-04T12:29:33;10.38;;;6.75;;
35418;SDS011;21525;41.240;16.500;2023-06-04T12:32:03;8.50;;;6.10;;
35418;SDS011;21525;41.240;16.500;2023-06-04T12:34:33;9.98;;;5.97;;
35418;SDS011;21525;41.240;16.500;2023-06-04T12:37:08;9.63;;;5.80;;
35418;SDS011;21525;41.240;16.500;2023-06-04T12:39:34;15.45;;;6.57;;
35418;SDS011;21525;41.240;16.500;2023-06-04T12:42:05;12.50;;;6.30;;
35418;SDS011;21525;41.240;16.500;2023-06-04T12:44:32;10.73;;;6.53;;
35418;SDS011;21525;41.240;16.500;2023-06-04T12:46:57;11.43;;;7.15;;
35418;SDS011;21525;41.240;16.500;2023-06-04T12:49:23;9.95;;;6.03;;
35418;SDS011;21525;41.240;16.500;2023-06-04T12:51:49;8.05;;;6.00;;
35418;SDS011;21525;41.240;16.500;2023-06-04T12:54:15;8.50;;;5.85;;
35418;SDS011;21525;41.240;16.500;2023-06-04T12:56:41;8.90;;;6.60;;
35418;SDS011;21525;41.240;16.500;2023-06-04T12:59:08;9.30;;;6.35;;
35418;SDS011;21525;41.240;16.500;2023-06-04T13:01:34;9.48;;;6.07;;
35418;SDS011;21525;41.240;16.500;2023-06-04T13:04:00;11.57;;;6.30;;
35418;SDS011;21525;41.240;16.500;2023-06-04T13:06:26;9.57;;;6.80;;
35418;SDS011;21525;41.240;16.500;2023-06-04T13:08:52;9.50;;;6.05;;
35418;SDS011;21525;41.240;16.500;2023-06-04T13:11:17;10.82;;;6.50;;
35418;SDS011;21525;41.240;16.500;2023-06-04T13:13:43;8.18;;;6.55;;
35418;SDS011;21525;41.240;16.500;2023-06-04T13:16:09;9.52;;;7.25;;
35418;SDS011;21525;41.240;16.500;2023-06-04T13:18:35;7.45;;;5.57;;
35418;SDS011;21525;41.240;16.500;2023-06-04T13:21:01;12.13;;;6.43;;
35418;SDS011;21525;41.240;16.500;2023-06-04T13:23:26;11.05;;;6.13;;
35418;SDS011;21525;41.240;16.500;2023-06-04T13:25:53;9.40;;;6.45;;
35418;SDS011;21525;41.240;16.500;2023-06-04T13:28:19;9.63;;;6.00;;
35418;SDS011;21525;41.240;16.500;2023-06-04T13:30:45;10.10;;;6.90;;
35418;SDS011;21525;41.240;16.500;2023-06-04T13:33:11;9.40;;;6.10;;
35418;SDS011;21525;41.240;16.500;2023-06-04T13:35:37;9.52;;;6.88;;
35418;SDS011;21525;41.240;16.500;2023-06-04T13:38:04;9.27;;;6.38;;
35418;SDS011;21525;41.240;16.500;2023-06-04T13:40:31;10.43;;;6.85;;
35418;SDS011;21525;41.240;16.500;2023-06-04T13:42:57;8.88;;;5.88;;
35418;SDS011;21525;41.240;16.500;2023-06-04T13:45:23;9.13;;;5.97;;
35418;SDS011;21525;41.240;16.500;2023-06-04T13:47:48;8.75;;;5.72;;
35418;SDS011;21525;41.240;16.500;2023-06-04T13:50:14;7.25;;;5.65;;
35418;SDS011;21525;41.240;16.500;2023-06-04T13:52:40;9.27;;;5.57;;
35418;SDS011;21525;41.240;16.500;2023-06-04T13:55:06;8.98;;;5.90;;
35418;SDS011;21525;41.240;16.500;2023-06-04T13:57:32;9.27;;;5.75;;
35418;SDS011;21525;41.240;16.500;2023-06-04T13:59:58;11.13;;;5.82;;
35418;SDS011;21525;41.240;16.500;2023-06-04T14:02:24;7.95;;;5.30;;
35418;SDS011;21525;41.240;16.500;2023-06-04T14:04:50;8.38;;;6.05;;
35418;SDS011;21525;41.240;16.500;2023-06-04T14:07:17;11.63;;;6.00;;
35418;SDS011;21525;41.240;16.500;2023-06-04T14:09:43;10.40;;;5.78;;
35418;SDS011;21525;41.240;16.500;2023-06-04T14:12:09;9.68;;;5.20;;
35418;SDS011;21525;41.240;16.500;2023-06-04T14:14:35;8.25;;;5.05;;
35418;SDS011;21525;41.240;16.500;2023-06-04T14:17:03;7.43;;;5.38;;
35418;SDS011;21525;41.240;16.500;2023-06-04T14:19:30;7.70;;;5.20;;
35418;SDS011;21525;41.240;16.500;2023-06-04T14:21:57;10.43;;;5.80;;
35418;SDS011;21525;41.240;16.500;2023-06-04T14:24:22;8.63;;;5.75;;
35418;SDS011;21525;41.240;16.500;2023-06-04T14:26:48;10.90;;;5.50;;
35418;SDS011;21525;41.240;16.500;2023-06-04T14:29:14;10.18;;;6.30;;
35418;SDS011;21525;41.240;16.500;2023-06-04T14:31:40;9.75;;;5.75;;
35418;SDS011;21525;41.240;16.500;2023-06-04T14:34:06;9.05;;;5.57;;
35418;SDS011;21525;41.240;16.500;2023-06-04T14:36:34;9.93;;;6.30;;
35418;SDS011;21525;41.240;16.500;2023-06-04T14:39:00;10.50;;;6.72;;
35418;SDS011;21525;41.240;16.500;2023-06-04T14:41:26;9.30;;;5.93;;
35418;SDS011;21525;41.240;16.500;2023-06-04T14:43:52;10.02;;;6.75;;
35418;SDS011;21525;41.240;16.500;2023-06-04T14:46:18;9.70;;;5.95;;